sensor_id;sensor_type;location;lat;lon;timestamp;temperature;humidity
17252;DHT22;8742;51.716;8.790;2022-12-18T00:00:44;-4.30;99.90
17252;DHT22;8742;51.716;8.790;2022-12-18T00:03:12;-4.20;99.90
17252;DHT22;8742;51.716;8.790;2022-12-18T00:05:46;-4.10;99.90
17252;DHT22;8742;51.716;8.790;2022-12-18T00:08:13;-4.10;99.90
17252;DHT22;8742;51.716;8.790;2022-12-18T00:10:39;-4.10;99.90
17252;DHT22;8742;51.716;8.790;2022-12-18T00:13:06;-4.10;99.90
17252;DHT22;8742;51.716;8.790;2022-12-18T00:15:35;-4.10;99.90
17252;DHT22;8742;51.716;8.790;2022-12-18T00:18:02;-4.10;99.90
17252;DHT22;8742;51.716;8.790;2022-12-18T00:20:29;-4.10;99.90
17252;DHT22;8742;51.716;8.790;2022-12-18T00:22:55;-4.10;99.90
17252;DHT22;8742;51.716;8.790;2022-12-18T00:25:22;-4.10;99.90
17252;DHT22;8742;51.716;8.790;2022-12-18T00:27:49;-4.10;99.90
17252;DHT22;8742;51.716;8.790;2022-12-18T00:30:22;-4.10;99.90
17252;DHT22;8742;51.716;8.790;2022-12-18T00:32:50;-4.00;99.90
17252;DHT22;8742;51.716;8.790;2022-12-18T00:35:17;-4.00;99.90
17252;DHT22;8742;51.716;8.790;2022-12-18T00:37:44;-4.00;99.90
17252;DHT22;8742;51.716;8.790;2022-12-18T00:40:12;-3.90;99.90
17252;DHT22;8742;51.716;8.790;2022-12-18T00:42:38;-3.80;99.90
17252;DHT22;8742;51.716;8.790;2022-12-18T00:45:23;-3.80;99.90
17252;DHT22;8742;51.716;8.790;2022-12-18T00:47:51;-3.80;99.90
17252;DHT22;8742;51.716;8.790;2022-12-18T00:50:19;-3.80;99.90
17252;DHT22;8742;51.716;8.790;2022-12-18T00:52:45;-3.80;99.90
17252;DHT22;8742;51.716;8.790;2022-12-18T00:55:13;-3.80;99.90
17252;DHT22;8742;51.716;8.790;2022-12-18T00:57:40;-3.80;99.90
17252;DHT22;8742;51.716;8.790;2022-12-18T01:00:10;-3.80;99.90
17252;DHT22;8742;51.716;8.790;2022-12-18T01:02:39;-3.70;99.90
17252;DHT22;8742;51.716;8.790;2022-12-18T01:05:08;-3.80;99.90
17252;DHT22;8742;51.716;8.790;2022-12-18T01:07:35;-3.70;99.90
17252;DHT22;8742;51.716;8.790;2022-12-18T01:10:03;-3.70;99.90
17252;DHT22;8742;51.716;8.790;2022-12-18T01:12:30;-3.70;99.90
17252;DHT22;8742;51.716;8.790;2022-12-18T01:14:57;-3.70;99.90
17252;DHT22;8742;51.716;8.790;2022-12-18T01:17:24;-3.70;99.90
17252;DHT22;8742;51.716;8.790;2022-12-18T01:19:51;-3.60;99.90
17252;DHT22;8742;51.716;8.790;2022-12-18T01:22:19;-3.60;99.90
17252;DHT22;8742;51.716;8.790;2022-12-18T01:24:46;-3.60;99.90
17252;DHT22;8742;51.716;8.790;2022-12-18T01:27:13;-3.60;99.90
17252;DHT22;8742;51.716;8.790;2022-12-18T01:29:40;-3.50;99.90
17252;DHT22;8742;51.716;8.790;2022-12-18T01:32:07;-3.50;99.90
17252;DHT22;8742;51.716;8.790;2022-12-18T01:34:35;-3.50;99.90
17252;DHT22;8742;51.716;8.790;2022-12-18T01:37:03;-3.50;99.90
17252;DHT22;8742;51.716;8.790;2022-12-18T01:39:32;-3.50;99.90
17252;DHT22;8742;51.716;8.790;2022-12-18T01:41:59;-3.50;99.90
17252;DHT22;8742;51.716;8.790;2022-12-18T01:44:55;-3.40;99.90
17252;DHT22;8742;51.716;8.790;2022-12-18T01:47:24;-3.40;99.90
17252;DHT22;8742;51.716;8.790;2022-12-18T01:49:52;-3.40;99.90
17252;DHT22;8742;51.716;8.790;2022-12-18T01:52:20;-3.30;99.90
17252;DHT22;8742;51.716;8.790;2022-12-18T01:54:50;-3.30;99.90
17252;DHT22;8742;51.716;8.790;2022-12-18T01:57:18;-3.40;99.90
17252;DHT22;8742;51.716;8.790;2022-12-18T01:59:49;-3.40;99.90
17252;DHT22;8742;51.716;8.790;2022-12-18T02:02:19;-3.40;99.90
17252;DHT22;8742;51.716;8.790;2022-12-18T02:04:46;-3.40;99.90
17252;DHT22;8742;51.716;8.790;2022-12-18T02:07:22;-3.40;99.90
17252;DHT22;8742;51.716;8.790;2022-12-18T02:09:59;-3.50;99.90
17252;DHT22;8742;51.716;8.790;2022-12-18T02:12:30;-3.50;99.90
17252;DHT22;8742;51.716;8.790;2022-12-18T02:15:04;-3.40;99.90
17252;DHT22;8742;51.716;8.790;2022-12-18T02:17:38;-3.50;99.90
17252;DHT22;8742;51.716;8.790;2022-12-18T02:20:13;-3.50;99.90
17252;DHT22;8742;51.716;8.790;2022-12-18T02:22:48;-3.50;99.90
17252;DHT22;8742;51.716;8.790;2022-12-18T02:25:27;-3.40;99.90
17252;DHT22;8742;51.716;8.790;2022-12-18T02:27:59;-3.40;99.90
17252;DHT22;8742;51.716;8.790;2022-12-18T02:30:27;-3.30;99.90
17252;DHT22;8742;51.716;8.790;2022-12-18T02:32:56;-3.30;99.90
17252;DHT22;8742;51.716;8.790;2022-12-18T02:35:27;-3.20;99.90
17252;DHT22;8742;51.716;8.790;2022-12-18T02:37:55;-3.20;99.90
17252;DHT22;8742;51.716;8.790;2022-12-18T02:40:24;-3.20;99.90
17252;DHT22;8742;51.716;8.790;2022-12-18T02:42:52;-3.20;99.90
17252;DHT22;8742;51.716;8.790;2022-12-18T02:45:21;-3.20;99.90
17252;DHT22;8742;51.716;8.790;2022-12-18T02:47:49;-3.20;99.90
17252;DHT22;8742;51.716;8.790;2022-12-18T02:50:20;-3.30;99.90
17252;DHT22;8742;51.716;8.790;2022-12-18T02:53:03;-3.30;99.90
17252;DHT22;8742;51.716;8.790;2022-12-18T02:55:42;-3.30;99.90
17252;DHT22;8742;51.716;8.790;2022-12-18T02:58:15;-3.30;99.90
17252;DHT22;8742;51.716;8.790;2022-12-18T03:00:51;-3.30;99.90
17252;DHT22;8742;51.716;8.790;2022-12-18T03:03:24;-3.40;99.90
17252;DHT22;8742;51.716;8.790;2022-12-18T03:05:55;-3.40;99.90
17252;DHT22;8742;51.716;8.790;2022-12-18T03:08:26;-3.40;99.90
17252;DHT22;8742;51.716;8.790;2022-12-18T03:10:58;-3.40;99.90
17252;DHT22;8742;51.716;8.790;2022-12-18T03:13:30;-3.40;99.90
17252;DHT22;8742;51.716;8.790;2022-12-18T03:16:00;-3.30;99.90
17252;DHT22;8742;51.716;8.790;2022-12-18T03:18:32;-3.30;99.90
17252;DHT22;8742;51.716;8.790;2022-12-18T03:21:05;-3.30;99.90
17252;DHT22;8742;51.716;8.790;2022-12-18T03:23:34;-3.40;99.90
17252;DHT22;8742;51.716;8.790;2022-12-18T03:26:06;-3.30;99.90
17252;DHT22;8742;51.716;8.790;2022-12-18T03:28:36;-3.30;99.90
17252;DHT22;8742;51.716;8.790;2022-12-18T03:31:08;-3.30;99.90
17252;DHT22;8742;51.716;8.790;2022-12-18T03:33:39;-3.30;99.90
17252;DHT22;8742;51.716;8.790;2022-12-18T03:36:08;-3.40;99.90
17252;DHT22;8742;51.716;8.790;2022-12-18T03:38:35;-3.40;99.90
17252;DHT22;8742;51.716;8.790;2022-12-18T03:41:08;-3.40;99.90
17252;DHT22;8742;51.716;8.790;2022-12-18T03:43:45;-3.30;99.90
17252;DHT22;8742;51.716;8.790;2022-12-18T03:46:24;-3.30;99.90
17252;DHT22;8742;51.716;8.790;2022-12-18T03:48:56;-3.30;99.90
17252;DHT22;8742;51.716;8.790;2022-12-18T03:51:30;-3.30;99.90
17252;DHT22;8742;51.716;8.790;2022-12-18T03:54:02;-3.30;99.90
17252;DHT22;8742;51.716;8.790;2022-12-18T03:56:36;-3.40;99.90
17252;DHT22;8742;51.716;8.790;2022-12-18T03:59:04;-3.40;99.90
17252;DHT22;8742;51.716;8.790;2022-12-18T04:01:35;-3.40;99.90
17252;DHT22;8742;51.716;8.790;2022-12-18T04:04:03;-3.40;99.90
17252;DHT22;8742;51.716;8.790;2022-12-18T04:06:32;-3.50;99.90
17252;DHT22;8742;51.716;8.790;2022-12-18T04:08:59;-3.50;99.90
17252;DHT22;8742;51.716;8.790;2022-12-18T04:11:26;-3.50;99.90
17252;DHT22;8742;51.716;8.790;2022-12-18T04:13:57;-3.50;99.90
17252;DHT22;8742;51.716;8.790;2022-12-18T04:16:24;-3.50;99.90
17252;DHT22;8742;51.716;8.790;2022-12-18T04:18:52;-3.40;99.90
17252;DHT22;8742;51.716;8.790;2022-12-18T04:21:19;-3.40;99.90
17252;DHT22;8742;51.716;8.790;2022-12-18T04:23:46;-3.50;99.90
17252;DHT22;8742;51.716;8.790;2022-12-18T04:26:13;-3.50;99.90
17252;DHT22;8742;51.716;8.790;2022-12-18T04:28:40;-3.50;99.90
17252;DHT22;8742;51.716;8.790;2022-12-18T04:31:07;-3.50;99.90
17252;DHT22;8742;51.716;8.790;2022-12-18T04:33:34;-3.50;99.90
17252;DHT22;8742;51.716;8.790;2022-12-18T04:36:02;-3.50;99.90
17252;DHT22;8742;51.716;8.790;2022-12-18T04:38:29;-3.50;99.90
17252;DHT22;8742;51.716;8.790;2022-12-18T04:40:56;-3.50;99.90
17252;DHT22;8742;51.716;8.790;2022-12-18T04:43:23;-3.50;99.90
17252;DHT22;8742;51.716;8.790;2022-12-18T04:45:49;-3.40;99.90
17252;DHT22;8742;51.716;8.790;2022-12-18T04:48:16;-3.40;99.90
17252;DHT22;8742;51.716;8.790;2022-12-18T04:50:43;-3.40;99.90
17252;DHT22;8742;51.716;8.790;2022-12-18T04:53:12;-3.40;99.90
17252;DHT22;8742;51.716;8.790;2022-12-18T04:55:39;-3.40;99.90
17252;DHT22;8742;51.716;8.790;2022-12-18T04:58:05;-3.40;99.90
17252;DHT22;8742;51.716;8.790;2022-12-18T05:00:32;-3.40;99.90
17252;DHT22;8742;51.716;8.790;2022-12-18T05:03:01;-3.40;99.90
17252;DHT22;8742;51.716;8.790;2022-12-18T05:05:27;-3.40;99.90
17252;DHT22;8742;51.716;8.790;2022-12-18T05:07:54;-3.50;99.90
17252;DHT22;8742;51.716;8.790;2022-12-18T05:10:22;-3.50;99.90
17252;DHT22;8742;51.716;8.790;2022-12-18T05:12:49;-3.50;99.90
17252;DHT22;8742;51.716;8.790;2022-12-18T05:15:27;-3.40;99.90
17252;DHT22;8742;51.716;8.790;2022-12-18T05:17:54;-3.50;99.90
17252;DHT22;8742;51.716;8.790;2022-12-18T05:20:21;-3.40;99.90
17252;DHT22;8742;51.716;8.790;2022-12-18T05:22:48;-3.40;99.90
17252;DHT22;8742;51.716;8.790;2022-12-18T05:25:15;-3.40;99.90
17252;DHT22;8742;51.716;8.790;2022-12-18T05:27:43;-3.40;99.90
17252;DHT22;8742;51.716;8.790;2022-12-18T05:30:11;-3.40;99.90
17252;DHT22;8742;51.716;8.790;2022-12-18T05:32:39;-3.40;99.90
17252;DHT22;8742;51.716;8.790;2022-12-18T05:35:08;-3.30;99.90
17252;DHT22;8742;51.716;8.790;2022-12-18T05:37:35;-3.30;99.90
17252;DHT22;8742;51.716;8.790;2022-12-18T05:40:03;-3.30;99.90
17252;DHT22;8742;51.716;8.790;2022-12-18T05:42:30;-3.30;99.90
17252;DHT22;8742;51.716;8.790;2022-12-18T05:44:58;-3.30;99.90
17252;DHT22;8742;51.716;8.790;2022-12-18T05:47:26;-3.30;99.90
17252;DHT22;8742;51.716;8.790;2022-12-18T05:49:53;-3.30;99.90
17252;DHT22;8742;51.716;8.790;2022-12-18T05:52:20;-3.30;99.90
17252;DHT22;8742;51.716;8.790;2022-12-18T05:54:47;-3.30;99.90
17252;DHT22;8742;51.716;8.790;2022-12-18T05:57:14;-3.30;99.90
17252;DHT22;8742;51.716;8.790;2022-12-18T05:59:41;-3.30;99.90
17252;DHT22;8742;51.716;8.790;2022-12-18T06:02:09;-3.20;99.90
17252;DHT22;8742;51.716;8.790;2022-12-18T06:04:36;-3.20;99.90
17252;DHT22;8742;51.716;8.790;2022-12-18T06:07:03;-3.20;99.90
17252;DHT22;8742;51.716;8.790;2022-12-18T06:09:29;-3.20;99.90
17252;DHT22;8742;51.716;8.790;2022-12-18T06:11:57;-3.20;99.90
17252;DHT22;8742;51.716;8.790;2022-12-18T06:14:24;-3.20;99.90
17252;DHT22;8742;51.716;8.790;2022-12-18T06:16:51;-3.10;99.90
17252;DHT22;8742;51.716;8.790;2022-12-18T06:19:19;-3.20;99.90
17252;DHT22;8742;51.716;8.790;2022-12-18T06:21:46;-3.20;99.90
17252;DHT22;8742;51.716;8.790;2022-12-18T06:24:13;-3.10;99.90
17252;DHT22;8742;51.716;8.790;2022-12-18T06:26:40;-3.10;99.90
17252;DHT22;8742;51.716;8.790;2022-12-18T06:29:07;-3.00;99.90
17252;DHT22;8742;51.716;8.790;2022-12-18T06:31:33;-3.00;99.90
17252;DHT22;8742;51.716;8.790;2022-12-18T06:34:02;-3.00;99.90
17252;DHT22;8742;51.716;8.790;2022-12-18T06:36:31;-3.10;99.90
17252;DHT22;8742;51.716;8.790;2022-12-18T06:38:58;-3.10;99.90
17252;DHT22;8742;51.716;8.790;2022-12-18T06:41:24;-3.10;99.90
17252;DHT22;8742;51.716;8.790;2022-12-18T06:43:51;-3.10;99.90
17252;DHT22;8742;51.716;8.790;2022-12-18T06:46:18;-3.10;99.90
17252;DHT22;8742;51.716;8.790;2022-12-18T06:48:47;-3.10;99.90
17252;DHT22;8742;51.716;8.790;2022-12-18T06:51:17;-3.10;99.90
17252;DHT22;8742;51.716;8.790;2022-12-18T06:53:45;-3.10;99.90
17252;DHT22;8742;51.716;8.790;2022-12-18T06:56:12;-3.10;99.90
17252;DHT22;8742;51.716;8.790;2022-12-18T06:58:39;-3.10;99.90
17252;DHT22;8742;51.716;8.790;2022-12-18T07:01:08;-3.10;99.90
17252;DHT22;8742;51.716;8.790;2022-12-18T07:03:36;-3.00;99.90
17252;DHT22;8742;51.716;8.790;2022-12-18T07:06:03;-3.00;99.90
17252;DHT22;8742;51.716;8.790;2022-12-18T07:08:30;-3.00;99.90
17252;DHT22;8742;51.716;8.790;2022-12-18T07:10:58;-2.90;99.90
17252;DHT22;8742;51.716;8.790;2022-12-18T07:13:25;-3.00;99.90
17252;DHT22;8742;51.716;8.790;2022-12-18T07:15:52;-3.00;99.90
17252;DHT22;8742;51.716;8.790;2022-12-18T07:18:19;-3.00;99.90
17252;DHT22;8742;51.716;8.790;2022-12-18T07:20:46;-2.90;99.90
17252;DHT22;8742;51.716;8.790;2022-12-18T07:23:12;-2.90;99.90
17252;DHT22;8742;51.716;8.790;2022-12-18T07:25:40;-2.90;99.90
17252;DHT22;8742;51.716;8.790;2022-12-18T07:28:08;-2.90;99.90
17252;DHT22;8742;51.716;8.790;2022-12-18T07:30:37;-2.90;99.90
17252;DHT22;8742;51.716;8.790;2022-12-18T07:33:04;-2.90;99.90
17252;DHT22;8742;51.716;8.790;2022-12-18T07:35:32;-2.90;99.90
17252;DHT22;8742;51.716;8.790;2022-12-18T07:37:58;-3.00;99.90
17252;DHT22;8742;51.716;8.790;2022-12-18T07:40:25;-3.00;99.90
17252;DHT22;8742;51.716;8.790;2022-12-18T07:42:52;-3.10;99.90
17252;DHT22;8742;51.716;8.790;2022-12-18T07:45:20;-3.20;99.90
17252;DHT22;8742;51.716;8.790;2022-12-18T07:47:47;-3.30;99.90
17252;DHT22;8742;51.716;8.790;2022-12-18T07:50:14;-3.40;99.90
17252;DHT22;8742;51.716;8.790;2022-12-18T07:52:41;-3.40;99.90
17252;DHT22;8742;51.716;8.790;2022-12-18T07:55:08;-3.40;99.90
17252;DHT22;8742;51.716;8.790;2022-12-18T07:57:35;-3.50;99.90
17252;DHT22;8742;51.716;8.790;2022-12-18T08:00:02;-3.50;99.90
17252;DHT22;8742;51.716;8.790;2022-12-18T08:02:31;-3.60;99.90
17252;DHT22;8742;51.716;8.790;2022-12-18T08:04:58;-3.70;99.90
17252;DHT22;8742;51.716;8.790;2022-12-18T08:07:25;-3.70;99.90
17252;DHT22;8742;51.716;8.790;2022-12-18T08:09:52;-3.80;99.90
17252;DHT22;8742;51.716;8.790;2022-12-18T08:12:19;-3.80;99.90
17252;DHT22;8742;51.716;8.790;2022-12-18T08:14:45;-3.80;99.90
17252;DHT22;8742;51.716;8.790;2022-12-18T08:17:12;-3.80;99.90
17252;DHT22;8742;51.716;8.790;2022-12-18T08:19:40;-3.80;99.90
17252;DHT22;8742;51.716;8.790;2022-12-18T08:22:07;-3.80;99.90
17252;DHT22;8742;51.716;8.790;2022-12-18T08:24:34;-3.80;99.90
17252;DHT22;8742;51.716;8.790;2022-12-18T08:27:01;-3.70;99.90
17252;DHT22;8742;51.716;8.790;2022-12-18T08:29:27;-3.70;99.90
17252;DHT22;8742;51.716;8.790;2022-12-18T08:31:55;-3.60;99.90
17252;DHT22;8742;51.716;8.790;2022-12-18T08:34:22;-3.50;99.90
17252;DHT22;8742;51.716;8.790;2022-12-18T08:36:51;-3.40;99.90
17252;DHT22;8742;51.716;8.790;2022-12-18T08:39:17;-3.40;99.90
17252;DHT22;8742;51.716;8.790;2022-12-18T08:41:44;-3.40;99.90
17252;DHT22;8742;51.716;8.790;2022-12-18T08:44:31;-3.20;99.90
17252;DHT22;8742;51.716;8.790;2022-12-18T08:47:03;-2.60;99.90
17252;DHT22;8742;51.716;8.790;2022-12-18T08:49:30;-1.60;99.90
17252;DHT22;8742;51.716;8.790;2022-12-18T08:51:58;-0.90;99.90
17252;DHT22;8742;51.716;8.790;2022-12-18T08:54:25;-0.40;99.90
17252;DHT22;8742;51.716;8.790;2022-12-18T08:56:52;-0.20;99.90
17252;DHT22;8742;51.716;8.790;2022-12-18T08:59:20;0.20;99.90
17252;DHT22;8742;51.716;8.790;2022-12-18T09:01:47;0.50;99.90
17252;DHT22;8742;51.716;8.790;2022-12-18T09:04:14;0.70;99.90
17252;DHT22;8742;51.716;8.790;2022-12-18T09:06:41;0.70;99.90
17252;DHT22;8742;51.716;8.790;2022-12-18T09:09:09;0.70;99.90
17252;DHT22;8742;51.716;8.790;2022-12-18T09:11:36;0.70;99.90
17252;DHT22;8742;51.716;8.790;2022-12-18T09:14:03;0.90;99.90
17252;DHT22;8742;51.716;8.790;2022-12-18T09:16:31;1.10;99.90
17252;DHT22;8742;51.716;8.790;2022-12-18T09:19:01;1.20;99.90
17252;DHT22;8742;51.716;8.790;2022-12-18T09:21:31;1.40;99.90
17252;DHT22;8742;51.716;8.790;2022-12-18T09:23:57;1.60;99.90
17252;DHT22;8742;51.716;8.790;2022-12-18T09:26:26;1.80;99.90
17252;DHT22;8742;51.716;8.790;2022-12-18T09:28:53;1.80;99.90
17252;DHT22;8742;51.716;8.790;2022-12-18T09:31:22;1.60;99.90
17252;DHT22;8742;51.716;8.790;2022-12-18T09:33:50;1.40;99.90
17252;DHT22;8742;51.716;8.790;2022-12-18T09:36:17;1.20;99.90
17252;DHT22;8742;51.716;8.790;2022-12-18T09:38:44;0.90;99.90
17252;DHT22;8742;51.716;8.790;2022-12-18T09:41:24;0.90;99.90
17252;DHT22;8742;51.716;8.790;2022-12-18T09:43:59;0.90;99.90
17252;DHT22;8742;51.716;8.790;2022-12-18T09:46:30;1.10;99.90
17252;DHT22;8742;51.716;8.790;2022-12-18T09:48:59;1.50;99.90
17252;DHT22;8742;51.716;8.790;2022-12-18T09:51:32;1.80;99.90
17252;DHT22;8742;51.716;8.790;2022-12-18T09:54:05;2.20;99.90
17252;DHT22;8742;51.716;8.790;2022-12-18T09:56:36;2.60;99.90
17252;DHT22;8742;51.716;8.790;2022-12-18T09:59:18;3.20;99.90
17252;DHT22;8742;51.716;8.790;2022-12-18T10:01:46;3.70;99.90
17252;DHT22;8742;51.716;8.790;2022-12-18T10:04:13;3.80;99.90
17252;DHT22;8742;51.716;8.790;2022-12-18T10:06:45;4.00;99.90
17252;DHT22;8742;51.716;8.790;2022-12-18T10:09:21;4.20;99.90
17252;DHT22;8742;51.716;8.790;2022-12-18T10:11:57;4.40;99.90
17252;DHT22;8742;51.716;8.790;2022-12-18T10:14:34;4.50;99.90
17252;DHT22;8742;51.716;8.790;2022-12-18T10:17:12;4.60;99.90
17252;DHT22;8742;51.716;8.790;2022-12-18T10:19:43;4.60;99.90
17252;DHT22;8742;51.716;8.790;2022-12-18T10:22:22;4.90;99.90
17252;DHT22;8742;51.716;8.790;2022-12-18T10:24:57;5.10;99.90
17252;DHT22;8742;51.716;8.790;2022-12-18T10:27:27;5.40;99.90
17252;DHT22;8742;51.716;8.790;2022-12-18T10:29:56;5.40;99.90
17252;DHT22;8742;51.716;8.790;2022-12-18T10:32:25;5.50;99.90
17252;DHT22;8742;51.716;8.790;2022-12-18T10:34:56;5.80;99.90
17252;DHT22;8742;51.716;8.790;2022-12-18T10:37:25;6.00;99.90
17252;DHT22;8742;51.716;8.790;2022-12-18T10:40:11;6.30;99.90
17252;DHT22;8742;51.716;8.790;2022-12-18T10:42:38;6.30;99.90
17252;DHT22;8742;51.716;8.790;2022-12-18T10:45:11;6.30;99.90
17252;DHT22;8742;51.716;8.790;2022-12-18T10:47:42;6.20;99.90
17252;DHT22;8742;51.716;8.790;2022-12-18T10:50:18;6.20;99.90
17252;DHT22;8742;51.716;8.790;2022-12-18T10:52:53;6.20;99.90
17252;DHT22;8742;51.716;8.790;2022-12-18T10:55:20;6.20;99.90
17252;DHT22;8742;51.716;8.790;2022-12-18T10:57:48;6.00;99.90
17252;DHT22;8742;51.716;8.790;2022-12-18T11:00:25;5.60;99.90
17252;DHT22;8742;51.716;8.790;2022-12-18T11:02:53;5.00;99.90
17252;DHT22;8742;51.716;8.790;2022-12-18T11:05:29;4.60;99.90
17252;DHT22;8742;51.716;8.790;2022-12-18T11:07:57;4.10;99.90
17252;DHT22;8742;51.716;8.790;2022-12-18T11:10:29;3.80;99.90
17252;DHT22;8742;51.716;8.790;2022-12-18T11:13:09;3.60;99.90
17252;DHT22;8742;51.716;8.790;2022-12-18T11:15:40;3.30;99.90
17252;DHT22;8742;51.716;8.790;2022-12-18T11:18:18;3.10;99.90
17252;DHT22;8742;51.716;8.790;2022-12-18T11:20:52;2.80;99.90
17252;DHT22;8742;51.716;8.790;2022-12-18T11:23:19;2.70;99.90
17252;DHT22;8742;51.716;8.790;2022-12-18T11:25:51;2.60;99.90
17252;DHT22;8742;51.716;8.790;2022-12-18T11:28:35;2.50;99.90
17252;DHT22;8742;51.716;8.790;2022-12-18T11:31:22;2.40;99.90
17252;DHT22;8742;51.716;8.790;2022-12-18T11:34:03;2.40;99.90
17252;DHT22;8742;51.716;8.790;2022-12-18T11:36:33;2.40;99.90
17252;DHT22;8742;51.716;8.790;2022-12-18T11:39:08;2.40;99.90
17252;DHT22;8742;51.716;8.790;2022-12-18T11:41:41;2.50;99.90
17252;DHT22;8742;51.716;8.790;2022-12-18T11:44:28;2.60;99.90
17252;DHT22;8742;51.716;8.790;2022-12-18T11:47:01;2.60;99.90
17252;DHT22;8742;51.716;8.790;2022-12-18T11:49:33;2.60;99.90
17252;DHT22;8742;51.716;8.790;2022-12-18T11:52:03;2.50;99.90
17252;DHT22;8742;51.716;8.790;2022-12-18T11:54:31;2.40;99.90
17252;DHT22;8742;51.716;8.790;2022-12-18T11:57:05;2.40;99.90
17252;DHT22;8742;51.716;8.790;2022-12-18T11:59:40;2.30;99.90
17252;DHT22;8742;51.716;8.790;2022-12-18T12:02:28;2.30;99.90
17252;DHT22;8742;51.716;8.790;2022-12-18T12:05:11;2.20;99.90
17252;DHT22;8742;51.716;8.790;2022-12-18T12:07:45;2.10;99.90
17252;DHT22;8742;51.716;8.790;2022-12-18T12:10:32;2.00;99.90
17252;DHT22;8742;51.716;8.790;2022-12-18T12:13:18;1.90;99.90
17252;DHT22;8742;51.716;8.790;2022-12-18T12:15:58;1.90;99.90
17252;DHT22;8742;51.716;8.790;2022-12-18T12:18:37;1.90;99.90
17252;DHT22;8742;51.716;8.790;2022-12-18T12:21:16;1.90;99.90
17252;DHT22;8742;51.716;8.790;2022-12-18T12:23:49;1.80;99.90
17252;DHT22;8742;51.716;8.790;2022-12-18T12:26:23;1.80;99.90
17252;DHT22;8742;51.716;8.790;2022-12-18T12:29:00;1.70;99.90
17252;DHT22;8742;51.716;8.790;2022-12-18T12:31:50;1.70;99.90
17252;DHT22;8742;51.716;8.790;2022-12-18T12:34:23;1.60;99.90
17252;DHT22;8742;51.716;8.790;2022-12-18T12:37:03;1.50;99.90
17252;DHT22;8742;51.716;8.790;2022-12-18T12:39:36;1.50;99.90
17252;DHT22;8742;51.716;8.790;2022-12-18T12:42:08;1.40;99.90
17252;DHT22;8742;51.716;8.790;2022-12-18T12:44:56;1.30;99.90
17252;DHT22;8742;51.716;8.790;2022-12-18T12:47:28;1.30;99.90
17252;DHT22;8742;51.716;8.790;2022-12-18T12:49:58;1.20;99.90
17252;DHT22;8742;51.716;8.790;2022-12-18T12:52:32;1.20;99.90
17252;DHT22;8742;51.716;8.790;2022-12-18T12:55:04;1.20;99.90
17252;DHT22;8742;51.716;8.790;2022-12-18T12:57:36;1.10;99.90
17252;DHT22;8742;51.716;8.790;2022-12-18T13:00:09;1.10;99.90
17252;DHT22;8742;51.716;8.790;2022-12-18T13:02:42;1.10;99.90
17252;DHT22;8742;51.716;8.790;2022-12-18T13:05:18;1.10;99.90
17252;DHT22;8742;51.716;8.790;2022-12-18T13:07:52;1.10;99.90
17252;DHT22;8742;51.716;8.790;2022-12-18T13:10:32;1.00;99.90
17252;DHT22;8742;51.716;8.790;2022-12-18T13:13:01;1.00;99.90
17252;DHT22;8742;51.716;8.790;2022-12-18T13:15:34;1.00;99.90
17252;DHT22;8742;51.716;8.790;2022-12-18T13:18:19;1.00;99.90
17252;DHT22;8742;51.716;8.790;2022-12-18T13:20:49;1.00;99.90
17252;DHT22;8742;51.716;8.790;2022-12-18T13:23:27;0.90;99.90
17252;DHT22;8742;51.716;8.790;2022-12-18T13:25:55;0.90;99.90
17252;DHT22;8742;51.716;8.790;2022-12-18T13:28:23;0.90;99.90
17252;DHT22;8742;51.716;8.790;2022-12-18T13:30:55;0.90;99.90
17252;DHT22;8742;51.716;8.790;2022-12-18T13:33:42;0.80;99.90
17252;DHT22;8742;51.716;8.790;2022-12-18T13:36:30;0.80;99.90
17252;DHT22;8742;51.716;8.790;2022-12-18T13:42:34;0.80;99.90
17252;DHT22;8742;51.716;8.790;2022-12-18T13:45:42;0.70;99.90
17252;DHT22;8742;51.716;8.790;2022-12-18T13:48:29;0.70;99.90
17252;DHT22;8742;51.716;8.790;2022-12-18T13:50:59;0.80;99.90
17252;DHT22;8742;51.716;8.790;2022-12-18T13:53:32;0.70;99.90
17252;DHT22;8742;51.716;8.790;2022-12-18T13:56:00;0.70;99.90
17252;DHT22;8742;51.716;8.790;2022-12-18T13:58:28;0.70;99.90
17252;DHT22;8742;51.716;8.790;2022-12-18T14:00:55;0.60;99.90
17252;DHT22;8742;51.716;8.790;2022-12-18T14:03:24;0.60;99.90
17252;DHT22;8742;51.716;8.790;2022-12-18T14:05:55;0.60;99.90
17252;DHT22;8742;51.716;8.790;2022-12-18T14:08:23;0.50;99.90
17252;DHT22;8742;51.716;8.790;2022-12-18T14:10:52;0.50;99.90
17252;DHT22;8742;51.716;8.790;2022-12-18T14:13:24;0.40;99.90
17252;DHT22;8742;51.716;8.790;2022-12-18T14:15:51;0.30;99.90
17252;DHT22;8742;51.716;8.790;2022-12-18T14:18:21;0.30;99.90
17252;DHT22;8742;51.716;8.790;2022-12-18T14:20:50;0.30;99.90
17252;DHT22;8742;51.716;8.790;2022-12-18T14:23:32;0.20;99.90
17252;DHT22;8742;51.716;8.790;2022-12-18T14:26:01;0.10;99.90
17252;DHT22;8742;51.716;8.790;2022-12-18T14:28:29;0.10;99.90
17252;DHT22;8742;51.716;8.790;2022-12-18T14:30:56;0.00;99.90
17252;DHT22;8742;51.716;8.790;2022-12-18T14:33:24;0.00;99.90
17252;DHT22;8742;51.716;8.790;2022-12-18T14:35:59;-0.10;99.90
17252;DHT22;8742;51.716;8.790;2022-12-18T14:38:29;-0.10;99.90
17252;DHT22;8742;51.716;8.790;2022-12-18T14:40:57;-0.20;99.90
17252;DHT22;8742;51.716;8.790;2022-12-18T14:43:26;-0.20;99.90
17252;DHT22;8742;51.716;8.790;2022-12-18T14:45:53;-0.20;99.90
17252;DHT22;8742;51.716;8.790;2022-12-18T14:48:22;-0.20;99.90
17252;DHT22;8742;51.716;8.790;2022-12-18T14:50:56;-0.30;99.90
17252;DHT22;8742;51.716;8.790;2022-12-18T14:53:34;-0.30;99.90
17252;DHT22;8742;51.716;8.790;2022-12-18T14:56:02;-0.30;99.90
17252;DHT22;8742;51.716;8.790;2022-12-18T14:58:31;-0.30;99.90
17252;DHT22;8742;51.716;8.790;2022-12-18T15:00:58;-0.30;99.90
17252;DHT22;8742;51.716;8.790;2022-12-18T15:03:25;-0.30;99.90
17252;DHT22;8742;51.716;8.790;2022-12-18T15:05:51;-0.30;99.90
17252;DHT22;8742;51.716;8.790;2022-12-18T15:08:34;-0.30;99.90
17252;DHT22;8742;51.716;8.790;2022-12-18T15:11:02;-0.30;99.90
17252;DHT22;8742;51.716;8.790;2022-12-18T15:13:30;-0.30;99.90
17252;DHT22;8742;51.716;8.790;2022-12-18T15:16:00;-0.30;99.90
17252;DHT22;8742;51.716;8.790;2022-12-18T15:18:31;-0.30;99.90
17252;DHT22;8742;51.716;8.790;2022-12-18T15:21:07;-0.30;99.90
17252;DHT22;8742;51.716;8.790;2022-12-18T15:23:38;-0.40;99.90
17252;DHT22;8742;51.716;8.790;2022-12-18T15:26:13;-0.40;99.90
17252;DHT22;8742;51.716;8.790;2022-12-18T15:28:46;-0.40;99.90
17252;DHT22;8742;51.716;8.790;2022-12-18T15:31:24;-0.40;99.90
17252;DHT22;8742;51.716;8.790;2022-12-18T15:34:10;-0.40;99.90
17252;DHT22;8742;51.716;8.790;2022-12-18T15:36:37;-0.40;99.90
17252;DHT22;8742;51.716;8.790;2022-12-18T15:39:04;-0.40;99.90
17252;DHT22;8742;51.716;8.790;2022-12-18T15:41:33;-0.40;99.90
17252;DHT22;8742;51.716;8.790;2022-12-18T15:44:01;-0.40;99.90
17252;DHT22;8742;51.716;8.790;2022-12-18T15:46:27;-0.40;99.90
17252;DHT22;8742;51.716;8.790;2022-12-18T15:48:55;-0.40;99.90
17252;DHT22;8742;51.716;8.790;2022-12-18T15:51:24;-0.30;99.90
17252;DHT22;8742;51.716;8.790;2022-12-18T15:53:54;-0.30;99.90
17252;DHT22;8742;51.716;8.790;2022-12-18T15:56:22;-0.30;99.90
17252;DHT22;8742;51.716;8.790;2022-12-18T15:59:07;-0.40;99.90
17252;DHT22;8742;51.716;8.790;2022-12-18T16:01:35;-0.40;99.90
17252;DHT22;8742;51.716;8.790;2022-12-18T16:04:02;-0.40;99.90
17252;DHT22;8742;51.716;8.790;2022-12-18T16:06:29;-0.40;99.90
17252;DHT22;8742;51.716;8.790;2022-12-18T16:08:55;-0.40;99.90
17252;DHT22;8742;51.716;8.790;2022-12-18T16:11:24;-0.40;99.90
17252;DHT22;8742;51.716;8.790;2022-12-18T16:14:07;-0.40;99.90
17252;DHT22;8742;51.716;8.790;2022-12-18T16:16:38;-0.40;99.90